createdAt,value
2019-03-17T00:38:46.080Z,4.30
2019-03-17T00:41:16.590Z,4.10
2019-03-17T00:43:48.921Z,4.20
2019-03-17T00:46:19.653Z,4.20
2019-03-17T00:48:50.658Z,4.20
2019-03-17T00:51:26.097Z,4.00
2019-03-17T01:00:12.138Z,3.70
2019-03-17T01:09:55.568Z,3.60
2019-03-17T01:12:36.525Z,3.50
2019-03-17T01:15:20.603Z,3.40
2019-03-17T01:22:19.506Z,3.30
2019-03-17T01:32:07.097Z,4.10
2019-03-17T01:34:37.610Z,4.10
2019-03-17T01:37:08.111Z,3.90
2019-03-17T01:39:40.107Z,3.60
2019-03-17T01:42:10.621Z,3.40
2019-03-17T01:44:41.126Z,3.20
2019-03-17T01:47:13.258Z,3.00
2019-03-17T01:49:49.960Z,2.80
2019-03-17T01:52:20.304Z,2.60
2019-03-17T01:54:53.915Z,2.60
2019-03-17T01:57:24.393Z,2.70
2019-03-17T01:59:54.965Z,2.90
2019-03-17T02:02:30.339Z,3.10
2019-03-17T02:05:03.795Z,3.40
2019-03-17T02:07:35.775Z,3.70
2019-03-17T02:10:07.841Z,3.70
2019-03-17T02:12:38.275Z,3.90
2019-03-17T02:15:14.356Z,3.90
2019-03-17T02:17:46.283Z,3.90
2019-03-17T02:20:18.189Z,3.80
2019-03-17T02:22:48.674Z,3.80
2019-03-17T02:25:19.129Z,3.60
2019-03-17T02:27:51.132Z,3.50
2019-03-17T02:30:21.681Z,3.70
2019-03-17T02:32:52.145Z,3.80
2019-03-17T02:35:37.931Z,3.80
2019-03-17T02:37:59.477Z,4.30
2019-03-17T02:40:29.920Z,4.40
2019-03-17T02:43:00.398Z,4.80
2019-03-17T02:45:33.833Z,4.90
2019-03-17T02:48:07.039Z,4.90
2019-03-17T02:50:37.509Z,5.00
2019-03-17T02:53:09.525Z,5.10
2019-03-17T03:31:04.474Z,4.30
2019-03-17T03:57:45.473Z,3.00
2019-03-17T04:06:25.701Z,2.70
2019-03-17T04:08:56.974Z,2.80
2019-03-17T04:20:45.354Z,2.80
2019-03-17T04:24:37.877Z,2.70
2019-03-17T04:31:30.566Z,2.70
2019-03-17T05:21:46.785Z,1.80
2019-03-17T05:28:28.864Z,1.80
2019-03-17T05:43:16.967Z,1.80
2019-03-17T05:49:28.540Z,2.00
2019-03-17T05:51:54.280Z,2.30
2019-03-17T05:54:29.205Z,2.60
2019-03-17T05:57:01.260Z,2.90
2019-03-17T05:59:31.730Z,3.40
2019-03-17T06:02:02.255Z,3.90
2019-03-17T06:04:34.511Z,4.10
2019-03-17T06:07:18.272Z,4.30
2019-03-17T06:09:41.562Z,4.40
2019-03-17T06:12:12.063Z,4.50
2019-03-17T06:14:42.502Z,4.60
2019-03-17T06:17:15.828Z,4.70
2019-03-17T06:19:46.321Z,4.80
2019-03-17T06:22:20.284Z,4.80
2019-03-17T06:24:50.746Z,4.90
2019-03-17T06:27:24.428Z,4.90
2019-03-17T06:44:20.794Z,4.90
2019-03-17T06:54:02.610Z,5.60
2019-03-17T06:56:33.048Z,6.40
2019-03-17T06:59:19.361Z,7.10
2019-03-17T07:02:08.836Z,7.70
2019-03-17T07:04:43.228Z,7.90
2019-03-17T07:07:27.390Z,8.30
2019-03-17T07:13:53.298Z,9.00
2019-03-17T07:16:28.651Z,9.20
2019-03-17T07:19:21.334Z,9.90
2019-03-17T07:22:11.125Z,10.40
2019-03-17T07:31:11.578Z,10.60
2019-03-17T07:48:15.581Z,12.30
2019-03-17T07:57:36.142Z,13.60
2019-03-17T08:10:40.252Z,13.70
2019-03-17T08:22:35.632Z,13.50
2019-03-17T08:25:29.213Z,13.50
2019-03-17T08:28:14.796Z,13.80
2019-03-17T08:34:43.786Z,14.50
2019-03-17T08:38:03.951Z,14.70
2019-03-17T08:41:21.272Z,14.80
2019-03-17T08:44:52.331Z,14.50
2019-03-17T08:53:30.577Z,13.80
2019-03-17T08:56:02.498Z,14.00
2019-03-17T08:58:33.502Z,13.80
2019-03-17T09:05:22.466Z,13.70
2019-03-17T09:11:58.457Z,13.70
2019-03-17T09:14:39.371Z,13.70
2019-03-17T09:17:14.647Z,13.60
2019-03-17T09:20:11.265Z,13.90
2019-03-17T09:25:59.993Z,14.10
2019-03-17T09:35:19.995Z,13.60
2019-03-17T09:37:55.292Z,14.00
2019-03-17T09:40:44.946Z,14.20
2019-03-17T09:46:41.894Z,14.00
2019-03-17T09:59:17.597Z,14.50
2019-03-17T10:05:22.917Z,14.70
2019-03-17T10:08:08.907Z,14.70
2019-03-17T10:10:56.715Z,14.30
2019-03-17T10:13:48.711Z,14.20
2019-03-17T10:23:26.961Z,15.60
2019-03-17T10:49:58.114Z,15.00
2019-03-17T11:11:31.005Z,15.00
2019-03-17T11:14:43.667Z,15.30
2019-03-17T11:18:10.403Z,15.90
2019-03-17T11:21:20.934Z,15.90
2019-03-17T11:24:05.714Z,16.00
2019-03-17T11:26:50.751Z,16.00
2019-03-17T11:30:22.464Z,15.60
2019-03-17T11:33:07.665Z,15.70
2019-03-17T11:36:02.493Z,16.30
2019-03-17T11:38:49.202Z,16.00
2019-03-17T11:42:01.388Z,15.10
2019-03-17T11:44:46.162Z,14.60
2019-03-17T11:50:54.895Z,13.10
2019-03-17T11:54:45.600Z,12.70
2019-03-17T12:08:02.483Z,12.20
2019-03-17T12:10:52.858Z,11.90
2019-03-17T12:13:24.132Z,12.00
2019-03-17T12:20:27.558Z,11.80
2019-03-17T12:26:44.367Z,11.40
2019-03-17T12:29:27.680Z,12.10
2019-03-17T12:32:23.064Z,12.00
2019-03-17T12:35:12.543Z,11.70
2019-03-17T12:40:32.310Z,11.10
2019-03-17T12:43:05.452Z,10.90
2019-03-17T12:45:37.401Z,10.60
2019-03-17T12:51:20.167Z,10.10
2019-03-17T12:54:03.251Z,10.00
2019-03-17T13:10:42.804Z,8.60
2019-03-17T13:39:51.310Z,4.70
2019-03-17T13:43:11.638Z,4.50
2019-03-17T13:46:00.012Z,4.30
2019-03-17T13:48:31.398Z,4.20
2019-03-17T13:51:02.714Z,4.00
2019-03-17T13:53:33.951Z,3.80
2019-03-17T13:59:42.459Z,3.40
2019-03-17T14:05:28.011Z,3.10
2019-03-17T14:08:38.198Z,3.00
2019-03-17T14:11:09.627Z,2.90
2019-03-17T14:13:40.807Z,2.90
2019-03-17T14:19:16.240Z,2.90
2019-03-17T14:29:04.418Z,2.60
2019-03-17T14:31:38.633Z,2.40
2019-03-17T14:34:10.204Z,2.20
2019-03-17T14:36:44.758Z,2.00
2019-03-17T14:39:23.637Z,1.80
2019-03-17T14:41:58.037Z,1.70
2019-03-17T14:54:18.185Z,1.80
2019-03-17T15:03:48.989Z,2.10
2019-03-17T15:40:52.913Z,2.50
2019-03-17T15:43:24.388Z,2.50
2019-03-17T15:49:42.446Z,2.60
2019-03-17T15:52:13.603Z,2.60
2019-03-17T16:02:19.349Z,2.60
2019-03-17T16:04:50.484Z,2.60
2019-03-17T16:07:21.515Z,2.60
2019-03-17T16:09:52.566Z,2.60
2019-03-17T16:12:23.562Z,2.50
2019-03-17T16:14:56.871Z,2.50
2019-03-17T16:17:29.267Z,2.50
2019-03-17T16:20:01.316Z,2.40
2019-03-17T16:22:32.446Z,2.40
2019-03-17T16:25:03.674Z,2.40
2019-03-17T16:27:34.764Z,2.30
2019-03-17T16:30:12.082Z,2.30
2019-03-17T16:32:45.594Z,2.30
2019-03-17T16:35:22.493Z,2.30
2019-03-17T16:37:56.480Z,2.30
2019-03-17T16:40:32.583Z,2.30
2019-03-17T16:43:06.158Z,2.20
2019-03-17T16:45:40.504Z,2.30
2019-03-17T16:48:15.278Z,2.20
2019-03-17T16:50:51.201Z,2.20
2019-03-17T16:53:26.403Z,2.20
2019-03-17T16:56:01.115Z,2.20
2019-03-17T16:58:37.059Z,2.10
2019-03-17T17:01:12.862Z,2.00
2019-03-17T17:03:47.089Z,1.90
2019-03-17T17:06:19.810Z,1.90
2019-03-17T17:08:51.035Z,1.90
2019-03-17T17:11:22.265Z,1.90
2019-03-17T17:13:53.397Z,1.80
2019-03-17T17:16:24.570Z,1.80
2019-03-17T17:18:56.099Z,1.70
2019-03-17T17:21:27.341Z,1.70
2019-03-17T17:24:02.348Z,1.70
2019-03-17T17:26:37.706Z,1.60
2019-03-17T17:29:12.007Z,1.60
2019-03-17T17:31:47.905Z,1.60
2019-03-17T17:34:22.345Z,1.60
2019-03-17T17:36:57.946Z,1.60
2019-03-17T17:39:35.187Z,1.50
2019-03-17T17:42:10.359Z,1.50
2019-03-17T17:44:43.869Z,1.40
2019-03-17T17:47:16.239Z,1.40
2019-03-17T17:49:49.560Z,1.40
2019-03-17T17:52:22.844Z,1.40
2019-03-17T17:54:54.946Z,1.40
2019-03-17T17:57:28.110Z,1.40
2019-03-17T18:00:07.483Z,1.50
2019-03-17T18:02:39.280Z,1.50
2019-03-17T18:05:11.244Z,1.50
2019-03-17T18:07:47.562Z,1.50
2019-03-17T18:10:23.866Z,1.50
2019-03-17T18:12:54.577Z,1.60
2019-03-17T18:15:28.871Z,1.60
2019-03-17T18:18:00.928Z,1.50
2019-03-17T18:20:31.458Z,1.60
2019-03-17T18:23:03.919Z,1.60
2019-03-17T18:25:34.476Z,1.60
2019-03-17T18:28:06.605Z,1.60
2019-03-17T18:30:39.546Z,1.60
2019-03-17T18:33:13.175Z,1.50
2019-03-17T18:35:45.494Z,1.50
2019-03-17T18:38:19.167Z,1.50
2019-03-17T18:40:49.806Z,1.50
2019-03-17T18:43:20.739Z,1.40
2019-03-17T18:45:52.811Z,1.40
2019-03-17T18:48:23.405Z,1.40
2019-03-17T18:50:55.525Z,1.30
2019-03-17T18:57:46.215Z,1.20
2019-03-17T19:06:52.855Z,1.00
2019-03-17T22:36:39.378Z,0.10
2019-03-17T22:39:16.100Z,0.10
2019-03-17T22:41:53.879Z,0.20
2019-03-17T23:38:02.664Z,-0.10
